sensor_id;sensor_type;location;lat;lon;timestamp;P1;durP1;ratioP1;P2;durP2;ratioP2
13083;SDS011;6608;48.790;9.198;2023-02-28T00:00:04;72.10;;;46.10;;
13083;SDS011;6608;48.790;9.198;2023-02-28T00:02:34;73.90;;;46.63;;
13083;SDS011;6608;48.790;9.198;2023-02-28T00:05:01;77.90;;;48.30;;
13083;SDS011;6608;48.790;9.198;2023-02-28T00:07:28;71.90;;;45.90;;
13083;SDS011;6608;48.790;9.198;2023-02-28T00:09:55;74.70;;;46.57;;
13083;SDS011;6608;48.790;9.198;2023-02-28T00:12:22;71.73;;;45.87;;
13083;SDS011;6608;48.790;9.198;2023-02-28T00:14:49;73.83;;;46.33;;
13083;SDS011;6608;48.790;9.198;2023-02-28T00:17:15;72.20;;;46.20;;
13083;SDS011;6608;48.790;9.198;2023-02-28T00:19:42;71.77;;;46.30;;
13083;SDS011;6608;48.790;9.198;2023-02-28T00:22:09;72.57;;;46.73;;
13083;SDS011;6608;48.790;9.198;2023-02-28T00:24:35;73.13;;;46.43;;
13083;SDS011;6608;48.790;9.198;2023-02-28T00:27:01;70.73;;;45.67;;
13083;SDS011;6608;48.790;9.198;2023-02-28T00:29:29;72.40;;;46.50;;
13083;SDS011;6608;48.790;9.198;2023-02-28T00:31:56;72.63;;;46.53;;
13083;SDS011;6608;48.790;9.198;2023-02-28T00:34:22;73.07;;;46.63;;
13083;SDS011;6608;48.790;9.198;2023-02-28T00:36:48;71.60;;;45.97;;
13083;SDS011;6608;48.790;9.198;2023-02-28T00:39:15;71.90;;;46.03;;
13083;SDS011;6608;48.790;9.198;2023-02-28T00:41:41;68.33;;;44.37;;
13083;SDS011;6608;48.790;9.198;2023-02-28T00:44:08;67.53;;;44.10;;
13083;SDS011;6608;48.790;9.198;2023-02-28T00:46:36;68.60;;;44.57;;
13083;SDS011;6608;48.790;9.198;2023-02-28T00:49:02;69.67;;;44.07;;
13083;SDS011;6608;48.790;9.198;2023-02-28T00:51:28;67.40;;;44.27;;
13083;SDS011;6608;48.790;9.198;2023-02-28T00:53:55;68.57;;;44.47;;
13083;SDS011;6608;48.790;9.198;2023-02-28T00:56:21;70.90;;;45.87;;
13083;SDS011;6608;48.790;9.198;2023-02-28T00:58:47;75.10;;;47.33;;
13083;SDS011;6608;48.790;9.198;2023-02-28T01:01:14;71.57;;;45.50;;
13083;SDS011;6608;48.790;9.198;2023-02-28T01:03:42;72.27;;;45.97;;
13083;SDS011;6608;48.790;9.198;2023-02-28T01:06:08;74.50;;;46.77;;
13083;SDS011;6608;48.790;9.198;2023-02-28T01:08:34;72.27;;;46.40;;
13083;SDS011;6608;48.790;9.198;2023-02-28T01:11:06;73.07;;;45.77;;
13083;SDS011;6608;48.790;9.198;2023-02-28T01:13:33;71.73;;;46.07;;
13083;SDS011;6608;48.790;9.198;2023-02-28T01:15:59;74.20;;;46.80;;
13083;SDS011;6608;48.790;9.198;2023-02-28T01:18:26;73.23;;;46.80;;
13083;SDS011;6608;48.790;9.198;2023-02-28T01:20:54;71.07;;;46.07;;
13083;SDS011;6608;48.790;9.198;2023-02-28T01:23:21;74.07;;;46.70;;
13083;SDS011;6608;48.790;9.198;2023-02-28T01:25:48;71.03;;;46.07;;
13083;SDS011;6608;48.790;9.198;2023-02-28T01:28:15;70.87;;;45.87;;
13083;SDS011;6608;48.790;9.198;2023-02-28T01:30:41;71.20;;;45.67;;
13083;SDS011;6608;48.790;9.198;2023-02-28T01:33:08;69.70;;;45.60;;
13083;SDS011;6608;48.790;9.198;2023-02-28T01:35:34;71.87;;;46.10;;
13083;SDS011;6608;48.790;9.198;2023-02-28T01:38:02;71.77;;;45.97;;
13083;SDS011;6608;48.790;9.198;2023-02-28T01:40:29;70.27;;;45.90;;
13083;SDS011;6608;48.790;9.198;2023-02-28T01:42:55;71.67;;;46.03;;
13083;SDS011;6608;48.790;9.198;2023-02-28T01:45:22;73.30;;;46.93;;
13083;SDS011;6608;48.790;9.198;2023-02-28T01:47:50;73.67;;;47.27;;
13083;SDS011;6608;48.790;9.198;2023-02-28T01:50:18;72.83;;;46.27;;
13083;SDS011;6608;48.790;9.198;2023-02-28T01:52:45;70.97;;;46.00;;
13083;SDS011;6608;48.790;9.198;2023-02-28T01:55:14;73.50;;;46.70;;
13083;SDS011;6608;48.790;9.198;2023-02-28T01:57:41;70.50;;;45.87;;
13083;SDS011;6608;48.790;9.198;2023-02-28T02:00:09;72.40;;;46.57;;
13083;SDS011;6608;48.790;9.198;2023-02-28T02:02:38;71.77;;;46.50;;
13083;SDS011;6608;48.790;9.198;2023-02-28T02:05:05;71.17;;;46.03;;
13083;SDS011;6608;48.790;9.198;2023-02-28T02:07:33;71.43;;;46.20;;
13083;SDS011;6608;48.790;9.198;2023-02-28T02:10:01;73.27;;;46.67;;
13083;SDS011;6608;48.790;9.198;2023-02-28T02:12:31;69.57;;;45.63;;
13083;SDS011;6608;48.790;9.198;2023-02-28T02:15:04;73.00;;;45.60;;
13083;SDS011;6608;48.790;9.198;2023-02-28T02:17:34;72.83;;;46.57;;
13083;SDS011;6608;48.790;9.198;2023-02-28T02:22:53;72.87;;;47.37;;
13083;SDS011;6608;48.790;9.198;2023-02-28T02:25:28;71.33;;;46.07;;
13083;SDS011;6608;48.790;9.198;2023-02-28T02:28:07;71.73;;;46.67;;
13083;SDS011;6608;48.790;9.198;2023-02-28T02:30:43;71.20;;;46.73;;
13083;SDS011;6608;48.790;9.198;2023-02-28T02:35:55;70.47;;;46.20;;
13083;SDS011;6608;48.790;9.198;2023-02-28T02:38:26;74.07;;;46.70;;
13083;SDS011;6608;48.790;9.198;2023-02-28T02:40:58;72.17;;;46.70;;
13083;SDS011;6608;48.790;9.198;2023-02-28T02:43:29;70.67;;;46.20;;
13083;SDS011;6608;48.790;9.198;2023-02-28T02:45:59;74.07;;;46.83;;
13083;SDS011;6608;48.790;9.198;2023-02-28T02:48:29;71.20;;;46.60;;
13083;SDS011;6608;48.790;9.198;2023-02-28T02:50:58;70.43;;;46.27;;
13083;SDS011;6608;48.790;9.198;2023-02-28T02:53:27;71.37;;;46.40;;
13083;SDS011;6608;48.790;9.198;2023-02-28T02:55:55;70.60;;;46.13;;
13083;SDS011;6608;48.790;9.198;2023-02-28T02:58:24;72.10;;;46.70;;
13083;SDS011;6608;48.790;9.198;2023-02-28T03:00:52;69.03;;;45.50;;
13083;SDS011;6608;48.790;9.198;2023-02-28T03:03:19;69.07;;;45.57;;
13083;SDS011;6608;48.790;9.198;2023-02-28T03:05:54;70.57;;;46.30;;
13083;SDS011;6608;48.790;9.198;2023-02-28T03:08:23;70.77;;;46.17;;
13083;SDS011;6608;48.790;9.198;2023-02-28T03:10:50;71.80;;;46.10;;
13083;SDS011;6608;48.790;9.198;2023-02-28T03:13:20;72.63;;;46.43;;
13083;SDS011;6608;48.790;9.198;2023-02-28T03:15:54;70.17;;;46.47;;
13083;SDS011;6608;48.790;9.198;2023-02-28T03:18:24;70.37;;;46.00;;
13083;SDS011;6608;48.790;9.198;2023-02-28T03:20:56;68.87;;;45.70;;
13083;SDS011;6608;48.790;9.198;2023-02-28T03:23:29;72.17;;;46.83;;
13083;SDS011;6608;48.790;9.198;2023-02-28T03:25:59;71.27;;;46.03;;
13083;SDS011;6608;48.790;9.198;2023-02-28T03:28:30;72.43;;;46.67;;
13083;SDS011;6608;48.790;9.198;2023-02-28T03:30:58;70.93;;;46.53;;
13083;SDS011;6608;48.790;9.198;2023-02-28T03:33:26;70.63;;;46.47;;
13083;SDS011;6608;48.790;9.198;2023-02-28T03:35:54;72.47;;;47.17;;
13083;SDS011;6608;48.790;9.198;2023-02-28T03:38:25;72.83;;;46.87;;
13083;SDS011;6608;48.790;9.198;2023-02-28T03:40:55;70.63;;;45.90;;
13083;SDS011;6608;48.790;9.198;2023-02-28T03:43:24;70.93;;;45.93;;
13083;SDS011;6608;48.790;9.198;2023-02-28T03:45:52;71.83;;;46.10;;
13083;SDS011;6608;48.790;9.198;2023-02-28T03:48:22;73.77;;;47.07;;
13083;SDS011;6608;48.790;9.198;2023-02-28T03:50:51;69.50;;;45.77;;
13083;SDS011;6608;48.790;9.198;2023-02-28T03:53:19;73.30;;;47.57;;
13083;SDS011;6608;48.790;9.198;2023-02-28T03:55:47;71.50;;;46.03;;
13083;SDS011;6608;48.790;9.198;2023-02-28T03:58:19;72.13;;;46.30;;
13083;SDS011;6608;48.790;9.198;2023-02-28T04:00:47;72.77;;;46.47;;
13083;SDS011;6608;48.790;9.198;2023-02-28T04:03:15;73.87;;;47.33;;
13083;SDS011;6608;48.790;9.198;2023-02-28T04:05:46;73.20;;;47.93;;
13083;SDS011;6608;48.790;9.198;2023-02-28T04:08:14;72.87;;;47.30;;
13083;SDS011;6608;48.790;9.198;2023-02-28T04:10:40;70.87;;;46.33;;
13083;SDS011;6608;48.790;9.198;2023-02-28T04:13:08;71.13;;;46.40;;
13083;SDS011;6608;48.790;9.198;2023-02-28T04:15:36;71.53;;;46.67;;
13083;SDS011;6608;48.790;9.198;2023-02-28T04:18:02;72.77;;;47.57;;
13083;SDS011;6608;48.790;9.198;2023-02-28T04:20:29;71.53;;;46.77;;
13083;SDS011;6608;48.790;9.198;2023-02-28T04:22:55;72.50;;;47.23;;
13083;SDS011;6608;48.790;9.198;2023-02-28T04:25:21;72.27;;;47.07;;
13083;SDS011;6608;48.790;9.198;2023-02-28T04:27:48;72.83;;;47.17;;
13083;SDS011;6608;48.790;9.198;2023-02-28T04:30:14;72.87;;;47.60;;
13083;SDS011;6608;48.790;9.198;2023-02-28T04:32:42;73.67;;;46.83;;
13083;SDS011;6608;48.790;9.198;2023-02-28T04:35:09;71.27;;;46.80;;
13083;SDS011;6608;48.790;9.198;2023-02-28T04:37:35;74.17;;;47.60;;
13083;SDS011;6608;48.790;9.198;2023-02-28T04:40:02;69.10;;;44.77;;
13083;SDS011;6608;48.790;9.198;2023-02-28T04:42:29;71.37;;;46.70;;
13083;SDS011;6608;48.790;9.198;2023-02-28T04:45:00;72.40;;;47.53;;
13083;SDS011;6608;48.790;9.198;2023-02-28T04:47:26;72.07;;;46.97;;
13083;SDS011;6608;48.790;9.198;2023-02-28T04:49:54;74.33;;;48.13;;
13083;SDS011;6608;48.790;9.198;2023-02-28T04:52:21;71.33;;;46.37;;
13083;SDS011;6608;48.790;9.198;2023-02-28T04:54:47;71.97;;;46.73;;
13083;SDS011;6608;48.790;9.198;2023-02-28T04:57:13;75.93;;;47.43;;
13083;SDS011;6608;48.790;9.198;2023-02-28T04:59:40;71.37;;;46.33;;
13083;SDS011;6608;48.790;9.198;2023-02-28T05:02:06;71.20;;;46.73;;
13083;SDS011;6608;48.790;9.198;2023-02-28T05:04:33;71.67;;;47.23;;
13083;SDS011;6608;48.790;9.198;2023-02-28T05:07:01;72.37;;;46.83;;
13083;SDS011;6608;48.790;9.198;2023-02-28T05:09:28;72.40;;;47.07;;
13083;SDS011;6608;48.790;9.198;2023-02-28T05:11:54;71.57;;;46.63;;
13083;SDS011;6608;48.790;9.198;2023-02-28T05:14:21;72.30;;;47.13;;
13083;SDS011;6608;48.790;9.198;2023-02-28T05:16:47;71.23;;;46.77;;
13083;SDS011;6608;48.790;9.198;2023-02-28T05:19:14;73.63;;;47.93;;
13083;SDS011;6608;48.790;9.198;2023-02-28T05:21:41;75.43;;;47.60;;
13083;SDS011;6608;48.790;9.198;2023-02-28T05:24:10;72.90;;;46.80;;
13083;SDS011;6608;48.790;9.198;2023-02-28T05:26:37;71.63;;;47.13;;
13083;SDS011;6608;48.790;9.198;2023-02-28T05:29:04;70.93;;;46.53;;
13083;SDS011;6608;48.790;9.198;2023-02-28T05:31:31;74.70;;;47.77;;
13083;SDS011;6608;48.790;9.198;2023-02-28T05:33:57;73.13;;;47.30;;
13083;SDS011;6608;48.790;9.198;2023-02-28T05:36:24;71.13;;;46.63;;
13083;SDS011;6608;48.790;9.198;2023-02-28T05:38:50;73.33;;;47.63;;
13083;SDS011;6608;48.790;9.198;2023-02-28T05:41:18;70.07;;;45.87;;
13083;SDS011;6608;48.790;9.198;2023-02-28T05:43:45;73.10;;;46.37;;
13083;SDS011;6608;48.790;9.198;2023-02-28T05:46:12;72.63;;;47.50;;
13083;SDS011;6608;48.790;9.198;2023-02-28T05:48:39;74.73;;;47.50;;
13083;SDS011;6608;48.790;9.198;2023-02-28T05:51:06;72.37;;;47.13;;
13083;SDS011;6608;48.790;9.198;2023-02-28T05:53:33;74.17;;;48.10;;
13083;SDS011;6608;48.790;9.198;2023-02-28T05:55:59;75.03;;;48.23;;
13083;SDS011;6608;48.790;9.198;2023-02-28T05:58:27;74.27;;;47.90;;
13083;SDS011;6608;48.790;9.198;2023-02-28T06:00:55;73.50;;;47.83;;
13083;SDS011;6608;48.790;9.198;2023-02-28T06:03:22;74.00;;;47.70;;
13083;SDS011;6608;48.790;9.198;2023-02-28T06:05:48;76.97;;;48.50;;
13083;SDS011;6608;48.790;9.198;2023-02-28T06:08:15;74.57;;;48.00;;
13083;SDS011;6608;48.790;9.198;2023-02-28T06:10:41;73.63;;;47.77;;
13083;SDS011;6608;48.790;9.198;2023-02-28T06:13:08;77.17;;;47.67;;
13083;SDS011;6608;48.790;9.198;2023-02-28T06:15:35;74.67;;;47.80;;
13083;SDS011;6608;48.790;9.198;2023-02-28T06:18:02;74.33;;;47.57;;
13083;SDS011;6608;48.790;9.198;2023-02-28T06:20:28;77.13;;;48.13;;
13083;SDS011;6608;48.790;9.198;2023-02-28T06:22:55;72.87;;;47.60;;
13083;SDS011;6608;48.790;9.198;2023-02-28T06:25:23;74.57;;;48.20;;
13083;SDS011;6608;48.790;9.198;2023-02-28T06:27:50;74.40;;;47.47;;
13083;SDS011;6608;48.790;9.198;2023-02-28T06:30:16;78.30;;;49.77;;
13083;SDS011;6608;48.790;9.198;2023-02-28T06:32:44;73.90;;;47.93;;
13083;SDS011;6608;48.790;9.198;2023-02-28T06:35:10;78.73;;;48.70;;
13083;SDS011;6608;48.790;9.198;2023-02-28T06:37:38;75.30;;;47.90;;
13083;SDS011;6608;48.790;9.198;2023-02-28T06:40:05;79.37;;;49.57;;
13083;SDS011;6608;48.790;9.198;2023-02-28T06:42:32;76.93;;;49.33;;
13083;SDS011;6608;48.790;9.198;2023-02-28T06:44:59;76.57;;;48.87;;
13083;SDS011;6608;48.790;9.198;2023-02-28T06:47:28;75.00;;;47.87;;
13083;SDS011;6608;48.790;9.198;2023-02-28T06:49:55;75.67;;;49.10;;
13083;SDS011;6608;48.790;9.198;2023-02-28T06:52:22;76.43;;;48.37;;
13083;SDS011;6608;48.790;9.198;2023-02-28T06:55:05;79.33;;;49.77;;
13083;SDS011;6608;48.790;9.198;2023-02-28T06:57:32;79.80;;;50.33;;
13083;SDS011;6608;48.790;9.198;2023-02-28T06:59:59;76.53;;;48.00;;
13083;SDS011;6608;48.790;9.198;2023-02-28T07:02:26;75.93;;;48.57;;
13083;SDS011;6608;48.790;9.198;2023-02-28T07:04:53;78.17;;;49.53;;
13083;SDS011;6608;48.790;9.198;2023-02-28T07:07:21;77.37;;;49.37;;
13083;SDS011;6608;48.790;9.198;2023-02-28T07:09:47;74.80;;;48.03;;
13083;SDS011;6608;48.790;9.198;2023-02-28T07:12:13;77.47;;;49.63;;
13083;SDS011;6608;48.790;9.198;2023-02-28T07:14:40;80.93;;;51.27;;
13083;SDS011;6608;48.790;9.198;2023-02-28T07:17:06;82.00;;;51.33;;
13083;SDS011;6608;48.790;9.198;2023-02-28T07:19:33;74.93;;;48.23;;
13083;SDS011;6608;48.790;9.198;2023-02-28T07:21:59;90.33;;;49.20;;
13083;SDS011;6608;48.790;9.198;2023-02-28T07:24:29;84.73;;;50.03;;
13083;SDS011;6608;48.790;9.198;2023-02-28T07:26:55;74.77;;;48.53;;
13083;SDS011;6608;48.790;9.198;2023-02-28T07:29:22;74.90;;;47.43;;
13083;SDS011;6608;48.790;9.198;2023-02-28T07:31:48;78.63;;;48.90;;
13083;SDS011;6608;48.790;9.198;2023-02-28T07:34:18;76.07;;;49.00;;
13083;SDS011;6608;48.790;9.198;2023-02-28T07:36:44;77.07;;;47.93;;
13083;SDS011;6608;48.790;9.198;2023-02-28T07:39:10;78.33;;;49.77;;
13083;SDS011;6608;48.790;9.198;2023-02-28T07:41:38;81.00;;;49.30;;
13083;SDS011;6608;48.790;9.198;2023-02-28T07:44:08;78.40;;;49.47;;
13083;SDS011;6608;48.790;9.198;2023-02-28T07:46:36;78.67;;;49.63;;
13083;SDS011;6608;48.790;9.198;2023-02-28T07:49:03;91.00;;;51.00;;
13083;SDS011;6608;48.790;9.198;2023-02-28T07:51:29;81.67;;;50.97;;
13083;SDS011;6608;48.790;9.198;2023-02-28T07:53:56;77.00;;;49.43;;
13083;SDS011;6608;48.790;9.198;2023-02-28T07:56:22;79.73;;;50.37;;
13083;SDS011;6608;48.790;9.198;2023-02-28T07:58:50;80.23;;;50.70;;
13083;SDS011;6608;48.790;9.198;2023-02-28T08:01:16;84.40;;;50.20;;
13083;SDS011;6608;48.790;9.198;2023-02-28T08:03:44;82.47;;;50.97;;
13083;SDS011;6608;48.790;9.198;2023-02-28T08:06:15;79.30;;;49.37;;
13083;SDS011;6608;48.790;9.198;2023-02-28T08:08:42;83.97;;;52.13;;
13083;SDS011;6608;48.790;9.198;2023-02-28T08:11:09;84.90;;;51.23;;
13083;SDS011;6608;48.790;9.198;2023-02-28T08:13:36;78.53;;;48.90;;
13083;SDS011;6608;48.790;9.198;2023-02-28T08:16:05;78.53;;;49.57;;
13083;SDS011;6608;48.790;9.198;2023-02-28T08:18:32;82.80;;;49.73;;
13083;SDS011;6608;48.790;9.198;2023-02-28T08:20:58;88.37;;;51.50;;
13083;SDS011;6608;48.790;9.198;2023-02-28T08:23:25;79.50;;;49.77;;
13083;SDS011;6608;48.790;9.198;2023-02-28T08:25:54;80.63;;;50.93;;
13083;SDS011;6608;48.790;9.198;2023-02-28T08:28:20;84.43;;;50.80;;
13083;SDS011;6608;48.790;9.198;2023-02-28T08:30:51;81.43;;;49.33;;
13083;SDS011;6608;48.790;9.198;2023-02-28T08:33:26;82.80;;;51.73;;
13083;SDS011;6608;48.790;9.198;2023-02-28T08:35:53;85.30;;;51.17;;
13083;SDS011;6608;48.790;9.198;2023-02-28T08:38:20;83.47;;;51.77;;
13083;SDS011;6608;48.790;9.198;2023-02-28T08:40:46;90.63;;;52.27;;
13083;SDS011;6608;48.790;9.198;2023-02-28T08:43:13;86.17;;;51.80;;
13083;SDS011;6608;48.790;9.198;2023-02-28T08:45:39;85.17;;;52.30;;
13083;SDS011;6608;48.790;9.198;2023-02-28T08:48:06;83.93;;;51.90;;
13083;SDS011;6608;48.790;9.198;2023-02-28T08:50:34;82.67;;;51.53;;
13083;SDS011;6608;48.790;9.198;2023-02-28T08:53:00;82.43;;;51.10;;
13083;SDS011;6608;48.790;9.198;2023-02-28T08:55:27;89.73;;;55.50;;
13083;SDS011;6608;48.790;9.198;2023-02-28T08:57:53;87.20;;;50.73;;
13083;SDS011;6608;48.790;9.198;2023-02-28T09:00:20;84.77;;;51.80;;
13083;SDS011;6608;48.790;9.198;2023-02-28T09:02:47;86.33;;;50.07;;
13083;SDS011;6608;48.790;9.198;2023-02-28T09:05:13;84.17;;;51.57;;
13083;SDS011;6608;48.790;9.198;2023-02-28T09:07:41;82.27;;;51.30;;
13083;SDS011;6608;48.790;9.198;2023-02-28T09:10:08;81.13;;;50.60;;
13083;SDS011;6608;48.790;9.198;2023-02-28T09:12:34;84.47;;;52.23;;
13083;SDS011;6608;48.790;9.198;2023-02-28T09:15:01;84.10;;;51.40;;
13083;SDS011;6608;48.790;9.198;2023-02-28T09:17:27;85.67;;;51.13;;
13083;SDS011;6608;48.790;9.198;2023-02-28T09:19:54;82.97;;;51.10;;
13083;SDS011;6608;48.790;9.198;2023-02-28T09:22:20;81.77;;;50.83;;
13083;SDS011;6608;48.790;9.198;2023-02-28T09:24:48;104.17;;;63.73;;
13083;SDS011;6608;48.790;9.198;2023-02-28T09:27:14;85.90;;;52.10;;
13083;SDS011;6608;48.790;9.198;2023-02-28T09:29:41;82.53;;;51.33;;
13083;SDS011;6608;48.790;9.198;2023-02-28T09:32:07;82.63;;;51.33;;
13083;SDS011;6608;48.790;9.198;2023-02-28T09:34:34;82.67;;;51.30;;
13083;SDS011;6608;48.790;9.198;2023-02-28T09:37:01;87.20;;;52.40;;
13083;SDS011;6608;48.790;9.198;2023-02-28T09:39:28;82.87;;;51.00;;
13083;SDS011;6608;48.790;9.198;2023-02-28T09:41:57;84.17;;;51.70;;
13083;SDS011;6608;48.790;9.198;2023-02-28T09:44:26;85.70;;;52.10;;
13083;SDS011;6608;48.790;9.198;2023-02-28T09:46:55;87.77;;;51.80;;
13083;SDS011;6608;48.790;9.198;2023-02-28T09:49:23;86.50;;;52.83;;
13083;SDS011;6608;48.790;9.198;2023-02-28T09:51:50;91.70;;;55.43;;
13083;SDS011;6608;48.790;9.198;2023-02-28T09:54:18;85.77;;;51.67;;
13083;SDS011;6608;48.790;9.198;2023-02-28T09:56:45;103.77;;;61.97;;
13083;SDS011;6608;48.790;9.198;2023-02-28T09:59:20;91.17;;;54.33;;
13083;SDS011;6608;48.790;9.198;2023-02-28T10:01:53;89.73;;;55.07;;
13083;SDS011;6608;48.790;9.198;2023-02-28T10:04:29;100.10;;;59.73;;
13083;SDS011;6608;48.790;9.198;2023-02-28T10:07:00;87.37;;;53.00;;
13083;SDS011;6608;48.790;9.198;2023-02-28T10:09:29;239.00;;;118.47;;
13083;SDS011;6608;48.790;9.198;2023-02-28T10:12:01;93.87;;;54.97;;
13083;SDS011;6608;48.790;9.198;2023-02-28T10:14:31;94.80;;;56.03;;
13083;SDS011;6608;48.790;9.198;2023-02-28T10:17:00;89.80;;;54.40;;
13083;SDS011;6608;48.790;9.198;2023-02-28T10:19:29;88.07;;;54.17;;
13083;SDS011;6608;48.790;9.198;2023-02-28T10:25:05;85.70;;;52.03;;
13083;SDS011;6608;48.790;9.198;2023-02-28T10:44:50;87.47;;;53.23;;
13083;SDS011;6608;48.790;9.198;2023-02-28T10:47:36;88.13;;;52.47;;
13083;SDS011;6608;48.790;9.198;2023-02-28T10:52:52;90.17;;;54.43;;
13083;SDS011;6608;48.790;9.198;2023-02-28T10:55:20;89.20;;;53.43;;
13083;SDS011;6608;48.790;9.198;2023-02-28T10:57:48;91.33;;;53.73;;
13083;SDS011;6608;48.790;9.198;2023-02-28T11:00:17;93.83;;;54.27;;
13083;SDS011;6608;48.790;9.198;2023-02-28T11:02:44;97.50;;;54.57;;
13083;SDS011;6608;48.790;9.198;2023-02-28T11:05:27;100.50;;;55.37;;
13083;SDS011;6608;48.790;9.198;2023-02-28T11:07:55;100.53;;;56.47;;
13083;SDS011;6608;48.790;9.198;2023-02-28T11:10:24;97.07;;;54.97;;
13083;SDS011;6608;48.790;9.198;2023-02-28T11:12:54;99.17;;;55.57;;
13083;SDS011;6608;48.790;9.198;2023-02-28T11:15:23;101.60;;;55.27;;
13083;SDS011;6608;48.790;9.198;2023-02-28T11:17:53;99.23;;;55.63;;
13083;SDS011;6608;48.790;9.198;2023-02-28T11:20:21;96.60;;;54.70;;
13083;SDS011;6608;48.790;9.198;2023-02-28T11:22:48;98.93;;;55.00;;
13083;SDS011;6608;48.790;9.198;2023-02-28T11:25:18;101.90;;;56.07;;
13083;SDS011;6608;48.790;9.198;2023-02-28T11:27:46;102.53;;;56.60;;
13083;SDS011;6608;48.790;9.198;2023-02-28T11:30:30;105.17;;;57.90;;
13083;SDS011;6608;48.790;9.198;2023-02-28T11:32:57;104.93;;;56.20;;
13083;SDS011;6608;48.790;9.198;2023-02-28T11:35:24;105.13;;;56.80;;
13083;SDS011;6608;48.790;9.198;2023-02-28T11:37:52;104.63;;;56.80;;
13083;SDS011;6608;48.790;9.198;2023-02-28T11:40:19;106.80;;;57.20;;
13083;SDS011;6608;48.790;9.198;2023-02-28T11:42:50;107.67;;;57.27;;
13083;SDS011;6608;48.790;9.198;2023-02-28T11:45:21;111.03;;;58.20;;
13083;SDS011;6608;48.790;9.198;2023-02-28T11:47:52;107.73;;;57.30;;
13083;SDS011;6608;48.790;9.198;2023-02-28T11:53:02;108.83;;;57.70;;
13083;SDS011;6608;48.790;9.198;2023-02-28T11:55:31;112.07;;;57.70;;
13083;SDS011;6608;48.790;9.198;2023-02-28T11:58:11;112.50;;;57.97;;
13083;SDS011;6608;48.790;9.198;2023-02-28T12:00:45;107.67;;;58.17;;
13083;SDS011;6608;48.790;9.198;2023-02-28T12:03:23;102.97;;;55.93;;
13083;SDS011;6608;48.790;9.198;2023-02-28T12:05:53;108.63;;;58.53;;
13083;SDS011;6608;48.790;9.198;2023-02-28T12:08:26;110.37;;;58.73;;
13083;SDS011;6608;48.790;9.198;2023-02-28T12:11:02;108.03;;;57.60;;
13083;SDS011;6608;48.790;9.198;2023-02-28T12:13:34;111.77;;;58.23;;
13083;SDS011;6608;48.790;9.198;2023-02-28T12:16:10;109.77;;;57.57;;
13083;SDS011;6608;48.790;9.198;2023-02-28T12:21:24;110.97;;;57.73;;
13083;SDS011;6608;48.790;9.198;2023-02-28T12:23:58;112.13;;;58.63;;
13083;SDS011;6608;48.790;9.198;2023-02-28T12:26:29;109.63;;;56.93;;
13083;SDS011;6608;48.790;9.198;2023-02-28T12:28:59;114.53;;;59.40;;
13083;SDS011;6608;48.790;9.198;2023-02-28T12:31:28;107.83;;;57.67;;
13083;SDS011;6608;48.790;9.198;2023-02-28T12:33:56;109.90;;;57.83;;
13083;SDS011;6608;48.790;9.198;2023-02-28T12:36:27;112.87;;;59.07;;
13083;SDS011;6608;48.790;9.198;2023-02-28T12:38:55;112.00;;;58.40;;
13083;SDS011;6608;48.790;9.198;2023-02-28T12:41:22;109.27;;;57.37;;
13083;SDS011;6608;48.790;9.198;2023-02-28T12:43:52;110.07;;;58.00;;
13083;SDS011;6608;48.790;9.198;2023-02-28T12:46:23;112.97;;;59.67;;
13083;SDS011;6608;48.790;9.198;2023-02-28T12:48:50;113.77;;;58.67;;
13083;SDS011;6608;48.790;9.198;2023-02-28T12:51:18;111.90;;;58.23;;
13083;SDS011;6608;48.790;9.198;2023-02-28T12:53:49;112.77;;;58.97;;
13083;SDS011;6608;48.790;9.198;2023-02-28T12:56:20;112.97;;;58.43;;
13083;SDS011;6608;48.790;9.198;2023-02-28T12:58:49;110.23;;;58.13;;
13083;SDS011;6608;48.790;9.198;2023-02-28T13:01:30;113.17;;;58.77;;
13083;SDS011;6608;48.790;9.198;2023-02-28T13:09:23;109.87;;;57.70;;
13083;SDS011;6608;48.790;9.198;2023-02-28T13:11:50;113.47;;;59.30;;
13083;SDS011;6608;48.790;9.198;2023-02-28T13:14:22;116.77;;;59.93;;
13083;SDS011;6608;48.790;9.198;2023-02-28T13:17:02;109.53;;;58.57;;
13083;SDS011;6608;48.790;9.198;2023-02-28T13:19:36;111.10;;;58.53;;
13083;SDS011;6608;48.790;9.198;2023-02-28T13:22:04;110.57;;;58.90;;
13083;SDS011;6608;48.790;9.198;2023-02-28T13:24:42;109.97;;;58.10;;
13083;SDS011;6608;48.790;9.198;2023-02-28T13:27:10;112.03;;;58.13;;
13083;SDS011;6608;48.790;9.198;2023-02-28T13:29:41;109.90;;;58.10;;
13083;SDS011;6608;48.790;9.198;2023-02-28T13:32:18;108.50;;;57.83;;
13083;SDS011;6608;48.790;9.198;2023-02-28T13:34:47;113.03;;;59.27;;
13083;SDS011;6608;48.790;9.198;2023-02-28T13:37:34;109.37;;;56.70;;
13083;SDS011;6608;48.790;9.198;2023-02-28T13:42:49;109.07;;;57.93;;
13083;SDS011;6608;48.790;9.198;2023-02-28T13:45:21;112.00;;;59.97;;
13083;SDS011;6608;48.790;9.198;2023-02-28T13:47:51;110.67;;;59.03;;
13083;SDS011;6608;48.790;9.198;2023-02-28T13:50:22;123.60;;;66.03;;
13083;SDS011;6608;48.790;9.198;2023-02-28T13:52:52;109.57;;;58.30;;
13083;SDS011;6608;48.790;9.198;2023-02-28T13:55:27;111.83;;;57.50;;
13083;SDS011;6608;48.790;9.198;2023-02-28T14:00:43;113.23;;;60.40;;
13083;SDS011;6608;48.790;9.198;2023-02-28T14:03:15;106.13;;;57.03;;
13083;SDS011;6608;48.790;9.198;2023-02-28T14:05:45;112.67;;;59.13;;
13083;SDS011;6608;48.790;9.198;2023-02-28T14:08:12;110.57;;;58.73;;
13083;SDS011;6608;48.790;9.198;2023-02-28T14:10:42;111.50;;;59.00;;
13083;SDS011;6608;48.790;9.198;2023-02-28T14:13:14;111.23;;;58.43;;
13083;SDS011;6608;48.790;9.198;2023-02-28T14:15:45;109.70;;;58.50;;
13083;SDS011;6608;48.790;9.198;2023-02-28T14:18:20;109.13;;;58.80;;
13083;SDS011;6608;48.790;9.198;2023-02-28T14:20:47;106.67;;;57.03;;
13083;SDS011;6608;48.790;9.198;2023-02-28T14:23:16;111.23;;;58.23;;
13083;SDS011;6608;48.790;9.198;2023-02-28T14:25:47;109.40;;;58.03;;
13083;SDS011;6608;48.790;9.198;2023-02-28T14:28:17;114.27;;;57.93;;
13083;SDS011;6608;48.790;9.198;2023-02-28T14:30:59;109.07;;;57.67;;
13083;SDS011;6608;48.790;9.198;2023-02-28T14:36:16;111.70;;;59.30;;
13083;SDS011;6608;48.790;9.198;2023-02-28T14:38:45;111.00;;;59.67;;
13083;SDS011;6608;48.790;9.198;2023-02-28T14:41:15;106.17;;;56.40;;
13083;SDS011;6608;48.790;9.198;2023-02-28T14:43:47;101.83;;;54.50;;
13083;SDS011;6608;48.790;9.198;2023-02-28T14:46:15;108.43;;;56.50;;
13083;SDS011;6608;48.790;9.198;2023-02-28T14:48:44;108.70;;;57.63;;
13083;SDS011;6608;48.790;9.198;2023-02-28T14:51:11;105.67;;;57.03;;
13083;SDS011;6608;48.790;9.198;2023-02-28T14:53:38;108.40;;;58.60;;
13083;SDS011;6608;48.790;9.198;2023-02-28T14:56:05;107.43;;;56.80;;
13083;SDS011;6608;48.790;9.198;2023-02-28T14:58:33;108.00;;;57.03;;
13083;SDS011;6608;48.790;9.198;2023-02-28T15:01:00;105.83;;;57.33;;
13083;SDS011;6608;48.790;9.198;2023-02-28T15:03:31;109.20;;;58.10;;
13083;SDS011;6608;48.790;9.198;2023-02-28T15:05:58;103.43;;;56.07;;
13083;SDS011;6608;48.790;9.198;2023-02-28T15:08:25;115.90;;;63.10;;
13083;SDS011;6608;48.790;9.198;2023-02-28T15:10:54;103.90;;;56.17;;
13083;SDS011;6608;48.790;9.198;2023-02-28T15:13:21;107.43;;;57.07;;
13083;SDS011;6608;48.790;9.198;2023-02-28T15:15:49;105.73;;;56.67;;
13083;SDS011;6608;48.790;9.198;2023-02-28T15:18:22;106.07;;;56.57;;
13083;SDS011;6608;48.790;9.198;2023-02-28T15:20:52;104.40;;;56.70;;
13083;SDS011;6608;48.790;9.198;2023-02-28T15:23:19;106.70;;;57.43;;
13083;SDS011;6608;48.790;9.198;2023-02-28T15:25:46;105.87;;;57.27;;